sensor_id;sensor_type;location;lat;lon;timestamp;pressure;altitude;pressure_sealevel;temperature;humidity
70254;BME280;57649;42.968;1.608;2023-01-31T00:00:39;98717.38;;;-1.03;97.81
70254;BME280;57649;42.968;1.608;2023-01-31T00:03:05;98729.09;;;-1.10;98.44
70254;BME280;57649;42.968;1.608;2023-01-31T00:05:30;98732.63;;;-1.11;98.50
70254;BME280;57649;42.968;1.608;2023-01-31T00:07:55;98730.06;;;-1.12;98.60
70254;BME280;57649;42.968;1.608;2023-01-31T00:10:21;98721.50;;;-1.18;98.61
70254;BME280;57649;42.968;1.608;2023-01-31T00:12:46;98720.53;;;-1.15;99.01
70254;BME280;57649;42.968;1.608;2023-01-31T00:15:12;98721.13;;;-1.08;99.00
70254;BME280;57649;42.968;1.608;2023-01-31T00:17:40;98697.75;;;-1.14;97.96
70254;BME280;57649;42.968;1.608;2023-01-31T00:20:06;98711.88;;;-1.17;98.84
70254;BME280;57649;42.968;1.608;2023-01-31T00:22:32;98715.28;;;-1.15;98.30
70254;BME280;57649;42.968;1.608;2023-01-31T00:24:58;98713.22;;;-1.29;98.57
70254;BME280;57649;42.968;1.608;2023-01-31T00:27:23;98715.88;;;-1.30;99.09
70254;BME280;57649;42.968;1.608;2023-01-31T00:29:48;98717.34;;;-1.23;97.94
70254;BME280;57649;42.968;1.608;2023-01-31T00:32:14;98714.25;;;-1.33;99.01
70254;BME280;57649;42.968;1.608;2023-01-31T00:34:39;98702.09;;;-1.36;99.25
70254;BME280;57649;42.968;1.608;2023-01-31T00:37:05;98710.06;;;-1.37;99.02
70254;BME280;57649;42.968;1.608;2023-01-31T00:39:30;98703.69;;;-1.31;99.17
70254;BME280;57649;42.968;1.608;2023-01-31T00:41:55;98698.53;;;-1.34;99.01
70254;BME280;57649;42.968;1.608;2023-01-31T00:44:21;98698.59;;;-1.36;99.00
70254;BME280;57649;42.968;1.608;2023-01-31T00:46:46;98703.63;;;-1.30;98.83
70254;BME280;57649;42.968;1.608;2023-01-31T00:49:12;98699.28;;;-1.31;98.13
70254;BME280;57649;42.968;1.608;2023-01-31T00:51:37;98701.72;;;-1.26;98.27
70254;BME280;57649;42.968;1.608;2023-01-31T00:54:02;98706.16;;;-1.28;97.77
70254;BME280;57649;42.968;1.608;2023-01-31T00:56:28;98700.28;;;-1.33;98.59
70254;BME280;57649;42.968;1.608;2023-01-31T00:58:53;98698.59;;;-1.36;98.46
70254;BME280;57649;42.968;1.608;2023-01-31T01:01:27;98701.00;;;-1.30;98.62
70254;BME280;57649;42.968;1.608;2023-01-31T01:03:55;98696.59;;;-1.29;97.79
70254;BME280;57649;42.968;1.608;2023-01-31T01:06:21;98701.72;;;-1.26;97.86
70254;BME280;57649;42.968;1.608;2023-01-31T01:08:47;98694.88;;;-1.30;98.01
70254;BME280;57649;42.968;1.608;2023-01-31T01:11:18;98693.75;;;-1.25;98.20
70254;BME280;57649;42.968;1.608;2023-01-31T01:13:45;98687.06;;;-1.32;97.79
70254;BME280;57649;42.968;1.608;2023-01-31T01:16:19;98686.19;;;-1.32;97.84
70254;BME280;57649;42.968;1.608;2023-01-31T01:18:44;98690.66;;;-1.34;98.46
70254;BME280;57649;42.968;1.608;2023-01-31T01:21:20;98676.44;;;-1.29;98.29
70254;BME280;57649;42.968;1.608;2023-01-31T01:23:47;98677.66;;;-1.38;98.18
70254;BME280;57649;42.968;1.608;2023-01-31T01:26:18;98678.03;;;-1.47;98.12
70254;BME280;57649;42.968;1.608;2023-01-31T01:28:44;98680.78;;;-1.50;98.19
70254;BME280;57649;42.968;1.608;2023-01-31T01:31:11;98682.75;;;-1.55;97.58
70254;BME280;57649;42.968;1.608;2023-01-31T01:33:37;98679.19;;;-1.54;97.96
70254;BME280;57649;42.968;1.608;2023-01-31T01:36:05;98679.75;;;-1.46;97.30
70254;BME280;57649;42.968;1.608;2023-01-31T01:38:34;98684.25;;;-1.49;97.67
70254;BME280;57649;42.968;1.608;2023-01-31T01:41:00;98681.69;;;-1.51;97.01
70254;BME280;57649;42.968;1.608;2023-01-31T01:43:46;98686.94;;;-1.51;97.28
70254;BME280;57649;42.968;1.608;2023-01-31T01:46:38;98678.16;;;-1.50;97.08
70254;BME280;57649;42.968;1.608;2023-01-31T01:49:30;98672.91;;;-1.50;96.89
70254;BME280;57649;42.968;1.608;2023-01-31T01:51:59;98671.97;;;-1.49;96.83
70254;BME280;57649;42.968;1.608;2023-01-31T01:54:33;98678.75;;;-1.43;96.31
70254;BME280;57649;42.968;1.608;2023-01-31T01:57:02;98683.16;;;-1.44;96.47
70254;BME280;57649;42.968;1.608;2023-01-31T01:59:37;98675.59;;;-1.51;95.98
70254;BME280;57649;42.968;1.608;2023-01-31T02:02:07;98680.34;;;-1.61;96.35
70254;BME280;57649;42.968;1.608;2023-01-31T02:04:37;98684.22;;;-1.48;96.18
70254;BME280;57649;42.968;1.608;2023-01-31T02:07:06;98686.09;;;-1.51;96.45
70254;BME280;57649;42.968;1.608;2023-01-31T02:12:15;98684.00;;;-1.43;95.64
70254;BME280;57649;42.968;1.608;2023-01-31T02:14:41;98677.72;;;-1.39;96.05
70254;BME280;57649;42.968;1.608;2023-01-31T02:17:14;98683.84;;;-1.39;95.60
70254;BME280;57649;42.968;1.608;2023-01-31T02:19:49;98677.78;;;-1.41;95.59
70254;BME280;57649;42.968;1.608;2023-01-31T02:33:24;98679.00;;;-1.71;96.67
70254;BME280;57649;42.968;1.608;2023-01-31T02:36:25;98674.44;;;-1.66;96.78
70254;BME280;57649;42.968;1.608;2023-01-31T02:39:06;98673.88;;;-1.75;97.20
70254;BME280;57649;42.968;1.608;2023-01-31T02:41:49;98674.56;;;-1.69;97.14
70254;BME280;57649;42.968;1.608;2023-01-31T02:44:25;98674.72;;;-1.74;97.05
70254;BME280;57649;42.968;1.608;2023-01-31T02:47:32;98663.19;;;-1.70;95.67
70254;BME280;57649;42.968;1.608;2023-01-31T02:50:13;98662.31;;;-1.70;95.80
70254;BME280;57649;42.968;1.608;2023-01-31T02:55:20;98674.06;;;-1.79;95.70
70254;BME280;57649;42.968;1.608;2023-01-31T02:58:06;98668.75;;;-1.78;95.99
70254;BME280;57649;42.968;1.608;2023-01-31T03:00:36;98667.81;;;-1.77;96.17
70254;BME280;57649;42.968;1.608;2023-01-31T03:03:07;98679.25;;;-1.78;96.18
70254;BME280;57649;42.968;1.608;2023-01-31T03:05:37;98674.59;;;-1.93;94.88
70254;BME280;57649;42.968;1.608;2023-01-31T03:08:03;98676.66;;;-2.01;97.06
70254;BME280;57649;42.968;1.608;2023-01-31T03:13:44;98683.06;;;-2.08;96.59
70254;BME280;57649;42.968;1.608;2023-01-31T03:16:26;98670.03;;;-2.11;96.91
70254;BME280;57649;42.968;1.608;2023-01-31T03:19:27;98683.16;;;-2.11;97.93
70254;BME280;57649;42.968;1.608;2023-01-31T03:22:03;98674.78;;;-1.98;97.68
70254;BME280;57649;42.968;1.608;2023-01-31T03:24:30;98668.28;;;-1.89;96.55
70254;BME280;57649;42.968;1.608;2023-01-31T03:26:57;98677.09;;;-1.90;96.70
70254;BME280;57649;42.968;1.608;2023-01-31T03:29:27;98672.53;;;-1.85;96.81
70254;BME280;57649;42.968;1.608;2023-01-31T03:31:59;98670.56;;;-1.80;96.64
70254;BME280;57649;42.968;1.608;2023-01-31T03:34:27;98658.47;;;-2.06;95.95
70254;BME280;57649;42.968;1.608;2023-01-31T03:36:58;98671.28;;;-1.98;96.09
70254;BME280;57649;42.968;1.608;2023-01-31T03:42:07;98672.22;;;-1.99;97.23
70254;BME280;57649;42.968;1.608;2023-01-31T03:47:30;98670.00;;;-2.10;97.28
70254;BME280;57649;42.968;1.608;2023-01-31T03:50:02;98670.63;;;-2.03;97.61
70254;BME280;57649;42.968;1.608;2023-01-31T03:52:33;98679.34;;;-2.03;97.71
70254;BME280;57649;42.968;1.608;2023-01-31T03:55:06;98673.06;;;-1.99;97.57
70254;BME280;57649;42.968;1.608;2023-01-31T03:57:36;98669.53;;;-1.98;97.71
70254;BME280;57649;42.968;1.608;2023-01-31T04:00:04;98669.44;;;-1.96;97.20
70254;BME280;57649;42.968;1.608;2023-01-31T04:02:33;98671.31;;;-2.00;96.61
70254;BME280;57649;42.968;1.608;2023-01-31T04:05:07;98673.75;;;-2.17;96.03
70254;BME280;57649;42.968;1.608;2023-01-31T04:07:33;98678.25;;;-2.21;95.68
70254;BME280;57649;42.968;1.608;2023-01-31T04:09:59;98674.66;;;-2.18;96.44
70254;BME280;57649;42.968;1.608;2023-01-31T04:12:25;98673.41;;;-2.08;97.30
70254;BME280;57649;42.968;1.608;2023-01-31T04:14:50;98668.00;;;-2.03;97.20
70254;BME280;57649;42.968;1.608;2023-01-31T04:17:16;98666.81;;;-1.96;95.77
70254;BME280;57649;42.968;1.608;2023-01-31T04:19:41;98664.81;;;-1.89;96.29
70254;BME280;57649;42.968;1.608;2023-01-31T04:22:06;98659.78;;;-1.94;95.97
70254;BME280;57649;42.968;1.608;2023-01-31T04:24:32;98669.22;;;-1.90;95.03
70254;BME280;57649;42.968;1.608;2023-01-31T04:26:57;98666.16;;;-2.01;95.61
70254;BME280;57649;42.968;1.608;2023-01-31T04:29:23;98656.75;;;-2.07;96.07
70254;BME280;57649;42.968;1.608;2023-01-31T04:31:48;98663.06;;;-2.13;96.41
70254;BME280;57649;42.968;1.608;2023-01-31T04:34:14;98663.75;;;-2.07;96.55
70254;BME280;57649;42.968;1.608;2023-01-31T04:36:39;98670.69;;;-2.05;96.59
70254;BME280;57649;42.968;1.608;2023-01-31T04:39:05;98668.94;;;-2.06;96.51
70254;BME280;57649;42.968;1.608;2023-01-31T04:41:30;98671.47;;;-2.03;95.38
70254;BME280;57649;42.968;1.608;2023-01-31T04:43:56;98673.91;;;-1.98;95.02
70254;BME280;57649;42.968;1.608;2023-01-31T04:46:21;98683.91;;;-2.08;95.11
70254;BME280;57649;42.968;1.608;2023-01-31T04:48:47;98676.38;;;-1.94;95.03
70254;BME280;57649;42.968;1.608;2023-01-31T04:51:12;98681.66;;;-1.95;94.18
70254;BME280;57649;42.968;1.608;2023-01-31T04:53:38;98685.44;;;-2.02;94.66
70254;BME280;57649;42.968;1.608;2023-01-31T04:56:03;98685.63;;;-2.07;94.49
70254;BME280;57649;42.968;1.608;2023-01-31T04:58:30;98684.00;;;-2.11;94.90
70254;BME280;57649;42.968;1.608;2023-01-31T05:00:56;98701.28;;;-2.05;93.69
70254;BME280;57649;42.968;1.608;2023-01-31T05:03:21;98701.44;;;-2.08;94.17
70254;BME280;57649;42.968;1.608;2023-01-31T05:05:48;98706.66;;;-2.08;94.28
70254;BME280;57649;42.968;1.608;2023-01-31T05:08:13;98710.09;;;-2.06;94.51
70254;BME280;57649;42.968;1.608;2023-01-31T05:10:39;98716.28;;;-2.09;94.31
70254;BME280;57649;42.968;1.608;2023-01-31T05:13:05;98716.38;;;-2.10;95.25
70254;BME280;57649;42.968;1.608;2023-01-31T05:15:31;98718.47;;;-2.20;95.32
70254;BME280;57649;42.968;1.608;2023-01-31T05:17:57;98722.84;;;-2.21;95.17
70254;BME280;57649;42.968;1.608;2023-01-31T05:20:33;98718.31;;;-2.16;95.75
70254;BME280;57649;42.968;1.608;2023-01-31T05:23:01;98721.88;;;-2.18;95.13
70254;BME280;57649;42.968;1.608;2023-01-31T05:25:27;98726.28;;;-2.19;95.45
70254;BME280;57649;42.968;1.608;2023-01-31T05:27:52;98721.38;;;-2.28;95.17
70254;BME280;57649;42.968;1.608;2023-01-31T05:30:18;98716.34;;;-2.34;94.66
70254;BME280;57649;42.968;1.608;2023-01-31T05:32:45;98725.31;;;-2.40;96.02
70254;BME280;57649;42.968;1.608;2023-01-31T05:35:11;98733.00;;;-2.35;96.13
70254;BME280;57649;42.968;1.608;2023-01-31T05:37:37;98728.69;;;-2.36;95.96
70254;BME280;57649;42.968;1.608;2023-01-31T05:40:09;98725.34;;;-2.41;95.86
70254;BME280;57649;42.968;1.608;2023-01-31T05:42:35;98724.78;;;-2.26;95.09
70254;BME280;57649;42.968;1.608;2023-01-31T05:45:02;98732.50;;;-2.21;94.57
70254;BME280;57649;42.968;1.608;2023-01-31T05:47:27;98736.72;;;-2.17;94.29
70254;BME280;57649;42.968;1.608;2023-01-31T05:49:53;98747.97;;;-2.14;94.88
70254;BME280;57649;42.968;1.608;2023-01-31T05:52:19;98745.09;;;-2.07;93.83
70254;BME280;57649;42.968;1.608;2023-01-31T05:54:44;98742.72;;;-2.14;93.61
70254;BME280;57649;42.968;1.608;2023-01-31T05:57:10;98742.06;;;-2.20;94.69
70254;BME280;57649;42.968;1.608;2023-01-31T05:59:35;98746.38;;;-2.18;94.50
70254;BME280;57649;42.968;1.608;2023-01-31T06:02:00;98754.34;;;-2.21;95.03
70254;BME280;57649;42.968;1.608;2023-01-31T06:04:26;98755.53;;;-2.06;94.44
70254;BME280;57649;42.968;1.608;2023-01-31T06:06:51;98749.94;;;-2.20;94.92
70254;BME280;57649;42.968;1.608;2023-01-31T06:09:17;98749.56;;;-2.09;94.76
70254;BME280;57649;42.968;1.608;2023-01-31T06:11:42;98758.63;;;-1.95;93.56
70254;BME280;57649;42.968;1.608;2023-01-31T06:14:09;98766.63;;;-1.98;93.31
70254;BME280;57649;42.968;1.608;2023-01-31T06:16:34;98769.75;;;-1.88;92.94
70254;BME280;57649;42.968;1.608;2023-01-31T06:18:59;98773.09;;;-1.83;92.46
70254;BME280;57649;42.968;1.608;2023-01-31T06:21:26;98776.41;;;-1.78;92.32
70254;BME280;57649;42.968;1.608;2023-01-31T06:23:52;98782.94;;;-1.66;92.51
70254;BME280;57649;42.968;1.608;2023-01-31T06:26:17;98781.34;;;-1.70;91.56
70254;BME280;57649;42.968;1.608;2023-01-31T06:28:43;98776.69;;;-1.63;91.46
70254;BME280;57649;42.968;1.608;2023-01-31T06:31:09;98785.97;;;-1.53;91.78
70254;BME280;57649;42.968;1.608;2023-01-31T06:33:35;98777.91;;;-1.48;91.11
70254;BME280;57649;42.968;1.608;2023-01-31T06:36:01;98776.25;;;-1.51;91.26
70254;BME280;57649;42.968;1.608;2023-01-31T06:38:27;98779.97;;;-1.57;91.59
70254;BME280;57649;42.968;1.608;2023-01-31T06:40:53;98778.88;;;-1.51;91.03
70254;BME280;57649;42.968;1.608;2023-01-31T06:43:18;98778.19;;;-1.56;91.40
70254;BME280;57649;42.968;1.608;2023-01-31T06:45:44;98776.53;;;-1.59;91.80
70254;BME280;57649;42.968;1.608;2023-01-31T06:48:10;98784.66;;;-1.65;91.37
70254;BME280;57649;42.968;1.608;2023-01-31T06:50:36;98787.22;;;-1.63;91.97
70254;BME280;57649;42.968;1.608;2023-01-31T06:53:01;98795.66;;;-1.55;91.84
70254;BME280;57649;42.968;1.608;2023-01-31T06:55:27;98788.53;;;-1.75;91.49
70254;BME280;57649;42.968;1.608;2023-01-31T06:57:52;98789.28;;;-1.71;92.14
70254;BME280;57649;42.968;1.608;2023-01-31T07:00:19;98785.88;;;-1.73;91.73
70254;BME280;57649;42.968;1.608;2023-01-31T07:02:45;98789.38;;;-1.75;91.80
70254;BME280;57649;42.968;1.608;2023-01-31T07:05:11;98785.97;;;-1.77;92.36
70254;BME280;57649;42.968;1.608;2023-01-31T07:07:37;98787.34;;;-1.66;91.93
70254;BME280;57649;42.968;1.608;2023-01-31T07:10:02;98787.03;;;-1.59;91.09
70254;BME280;57649;42.968;1.608;2023-01-31T07:12:28;98789.03;;;-1.65;90.88
70254;BME280;57649;42.968;1.608;2023-01-31T07:14:53;98798.44;;;-1.60;90.77
70254;BME280;57649;42.968;1.608;2023-01-31T07:17:19;98788.81;;;-1.59;89.97
70254;BME280;57649;42.968;1.608;2023-01-31T07:19:47;98801.56;;;-1.48;89.59
70254;BME280;57649;42.968;1.608;2023-01-31T07:22:13;98792.34;;;-1.60;89.63
70254;BME280;57649;42.968;1.608;2023-01-31T07:24:38;98795.66;;;-1.55;89.38
70254;BME280;57649;42.968;1.608;2023-01-31T07:27:04;98799.19;;;-1.56;89.58
70254;BME280;57649;42.968;1.608;2023-01-31T07:29:29;98803.94;;;-1.42;89.58
70254;BME280;57649;42.968;1.608;2023-01-31T07:31:55;98792.50;;;-1.41;89.29
70254;BME280;57649;42.968;1.608;2023-01-31T07:34:20;98797.88;;;-1.44;89.09
70254;BME280;57649;42.968;1.608;2023-01-31T07:36:50;98806.38;;;-1.38;88.54
70254;BME280;57649;42.968;1.608;2023-01-31T07:39:16;98810.03;;;-1.42;88.92
70254;BME280;57649;42.968;1.608;2023-01-31T07:41:42;98808.16;;;-1.38;88.27
70254;BME280;57649;42.968;1.608;2023-01-31T07:44:08;98804.47;;;-1.34;88.47
70254;BME280;57649;42.968;1.608;2023-01-31T07:46:38;98806.22;;;-1.33;88.70
70254;BME280;57649;42.968;1.608;2023-01-31T07:49:03;98805.47;;;-1.37;88.74
70254;BME280;57649;42.968;1.608;2023-01-31T07:51:29;98811.63;;;-1.38;88.19
70254;BME280;57649;42.968;1.608;2023-01-31T07:53:55;98806.66;;;-1.45;88.02
70254;BME280;57649;42.968;1.608;2023-01-31T07:56:20;98797.94;;;-1.46;88.40
70254;BME280;57649;42.968;1.608;2023-01-31T07:58:48;98811.75;;;-1.41;88.58
70254;BME280;57649;42.968;1.608;2023-01-31T08:03:59;98799.06;;;-1.29;87.39
70254;BME280;57649;42.968;1.608;2023-01-31T08:06:26;98797.69;;;-1.40;87.80
70254;BME280;57649;42.968;1.608;2023-01-31T08:08:53;98803.63;;;-1.34;87.85
70254;BME280;57649;42.968;1.608;2023-01-31T08:11:18;98807.41;;;-1.42;88.49
70254;BME280;57649;42.968;1.608;2023-01-31T08:13:44;98801.25;;;-1.41;89.01
70254;BME280;57649;42.968;1.608;2023-01-31T08:16:09;98815.50;;;-1.24;88.16
70254;BME280;57649;42.968;1.608;2023-01-31T08:18:36;98817.88;;;-1.18;88.81
70254;BME280;57649;42.968;1.608;2023-01-31T08:21:01;98811.56;;;-1.36;89.89
70254;BME280;57649;42.968;1.608;2023-01-31T08:23:27;98810.38;;;-1.27;89.59
70254;BME280;57649;42.968;1.608;2023-01-31T08:25:59;98806.09;;;-1.30;88.83
70254;BME280;57649;42.968;1.608;2023-01-31T08:28:24;98804.75;;;-1.18;88.37
70254;BME280;57649;42.968;1.608;2023-01-31T08:30:49;98799.06;;;-1.07;88.02
70254;BME280;57649;42.968;1.608;2023-01-31T08:33:15;98804.75;;;-0.96;87.55
70254;BME280;57649;42.968;1.608;2023-01-31T08:35:40;98793.56;;;-1.01;87.71
70254;BME280;57649;42.968;1.608;2023-01-31T08:38:05;98794.28;;;-0.98;87.12
70254;BME280;57649;42.968;1.608;2023-01-31T08:40:31;98799.06;;;-0.85;86.73
70254;BME280;57649;42.968;1.608;2023-01-31T08:42:58;98799.84;;;-0.83;86.44
70254;BME280;57649;42.968;1.608;2023-01-31T08:45:27;98796.16;;;-0.79;86.09
70254;BME280;57649;42.968;1.608;2023-01-31T08:47:58;98791.84;;;-0.80;85.96
70254;BME280;57649;42.968;1.608;2023-01-31T08:50:26;98799.47;;;-0.74;85.87
70254;BME280;57649;42.968;1.608;2023-01-31T08:52:56;98806.06;;;-0.64;86.18
70254;BME280;57649;42.968;1.608;2023-01-31T08:55:22;98800.31;;;-0.73;85.80
70254;BME280;57649;42.968;1.608;2023-01-31T08:57:49;98788.34;;;-0.59;85.03
70254;BME280;57649;42.968;1.608;2023-01-31T09:00:16;98788.97;;;-0.53;85.63
70254;BME280;57649;42.968;1.608;2023-01-31T09:02:42;98796.78;;;-0.52;86.07
70254;BME280;57649;42.968;1.608;2023-01-31T09:05:08;98794.50;;;-0.39;86.74
70254;BME280;57649;42.968;1.608;2023-01-31T09:07:34;98794.38;;;-0.36;86.76
70254;BME280;57649;42.968;1.608;2023-01-31T09:09:59;98791.53;;;-0.31;87.08
70254;BME280;57649;42.968;1.608;2023-01-31T09:12:25;98803.00;;;-0.32;86.60
70254;BME280;57649;42.968;1.608;2023-01-31T09:14:50;98801.09;;;-0.29;87.57
70254;BME280;57649;42.968;1.608;2023-01-31T09:17:17;98802.59;;;-0.23;88.22
70254;BME280;57649;42.968;1.608;2023-01-31T09:19:42;98802.13;;;-0.12;87.14
70254;BME280;57649;42.968;1.608;2023-01-31T09:22:08;98802.97;;;-0.12;86.18
70254;BME280;57649;42.968;1.608;2023-01-31T09:24:33;98804.38;;;-0.03;87.18
70254;BME280;57649;42.968;1.608;2023-01-31T09:26:59;98800.47;;;0.06;84.50
70254;BME280;57649;42.968;1.608;2023-01-31T09:29:24;98804.75;;;0.27;84.49
70254;BME280;57649;42.968;1.608;2023-01-31T09:31:50;98797.81;;;0.45;82.86
70254;BME280;57649;42.968;1.608;2023-01-31T09:34:16;98800.44;;;0.45;81.42
70254;BME280;57649;42.968;1.608;2023-01-31T09:36:42;98791.34;;;0.52;81.85
70254;BME280;57649;42.968;1.608;2023-01-31T09:39:10;98797.81;;;0.64;81.78
70254;BME280;57649;42.968;1.608;2023-01-31T09:41:37;98801.22;;;0.85;79.64
70254;BME280;57649;42.968;1.608;2023-01-31T09:44:17;98793.00;;;1.10;79.32
70254;BME280;57649;42.968;1.608;2023-01-31T09:46:48;98788.59;;;1.46;77.07
70254;BME280;57649;42.968;1.608;2023-01-31T09:49:25;98790.31;;;1.82;76.42
70254;BME280;57649;42.968;1.608;2023-01-31T09:51:55;98794.56;;;2.18;74.48
70254;BME280;57649;42.968;1.608;2023-01-31T09:54:36;98786.63;;;2.35;74.20
70254;BME280;57649;42.968;1.608;2023-01-31T09:57:04;98790.03;;;2.69;73.60
70254;BME280;57649;42.968;1.608;2023-01-31T09:59:45;98777.94;;;2.97;70.87
70254;BME280;57649;42.968;1.608;2023-01-31T10:07:49;98778.84;;;4.31;65.60
70254;BME280;57649;42.968;1.608;2023-01-31T10:10:38;98775.13;;;4.48;65.32
70254;BME280;57649;42.968;1.608;2023-01-31T10:13:20;98770.97;;;4.58;64.10
70254;BME280;57649;42.968;1.608;2023-01-31T10:15:54;98770.97;;;4.58;63.32
70254;BME280;57649;42.968;1.608;2023-01-31T10:18:37;98769.31;;;4.70;62.85
70254;BME280;57649;42.968;1.608;2023-01-31T10:21:09;98776.41;;;4.84;62.93
70254;BME280;57649;42.968;1.608;2023-01-31T10:23:48;98776.91;;;4.76;62.74
70254;BME280;57649;42.968;1.608;2023-01-31T10:26:22;98772.19;;;4.94;62.81
70254;BME280;57649;42.968;1.608;2023-01-31T10:29:10;98774.41;;;4.88;62.13
70254;BME280;57649;42.968;1.608;2023-01-31T10:31:42;98771.72;;;5.02;62.51
70254;BME280;57649;42.968;1.608;2023-01-31T10:34:13;98777.66;;;5.33;62.62
70254;BME280;57649;42.968;1.608;2023-01-31T10:37:04;98774.34;;;5.69;61.43
70254;BME280;57649;42.968;1.608;2023-01-31T10:42:34;98769.09;;;6.08;58.67
70254;BME280;57649;42.968;1.608;2023-01-31T10:45:21;98766.59;;;6.06;58.07
70254;BME280;57649;42.968;1.608;2023-01-31T10:55:54;98770.38;;;6.28;56.95
70254;BME280;57649;42.968;1.608;2023-01-31T10:58:22;98765.13;;;6.52;55.63
70254;BME280;57649;42.968;1.608;2023-01-31T11:00:48;98756.47;;;6.74;53.79
70254;BME280;57649;42.968;1.608;2023-01-31T11:03:14;98745.97;;;6.60;54.19
70254;BME280;57649;42.968;1.608;2023-01-31T11:05:46;98756.31;;;6.88;53.73
70254;BME280;57649;42.968;1.608;2023-01-31T11:10:51;98749.66;;;7.31;53.34
70254;BME280;57649;42.968;1.608;2023-01-31T11:13:18;98748.78;;;7.30;53.31
70254;BME280;57649;42.968;1.608;2023-01-31T11:15:43;98743.81;;;7.61;53.19
70254;BME280;57649;42.968;1.608;2023-01-31T11:18:57;98741.19;;;7.84;53.31
70254;BME280;57649;42.968;1.608;2023-01-31T11:21:20;98732.88;;;8.11;52.65
70254;BME280;57649;42.968;1.608;2023-01-31T11:23:47;98720.38;;;8.00;53.05
70254;BME280;57649;42.968;1.608;2023-01-31T11:26:27;98720.16;;;7.92;53.35
70254;BME280;57649;42.968;1.608;2023-01-31T11:28:54;98727.53;;;7.88;54.00
70254;BME280;57649;42.968;1.608;2023-01-31T11:31:31;98717.25;;;7.95;53.96
70254;BME280;57649;42.968;1.608;2023-01-31T11:33:59;98710.81;;;7.98;54.17
70254;BME280;57649;42.968;1.608;2023-01-31T11:36:40;98717.69;;;7.78;54.54
70254;BME280;57649;42.968;1.608;2023-01-31T11:39:29;98718.81;;;7.86;55.43
70254;BME280;57649;42.968;1.608;2023-01-31T11:41:56;98707.91;;;8.35;54.76
70254;BME280;57649;42.968;1.608;2023-01-31T11:44:26;98696.91;;;8.51;54.25
70254;BME280;57649;42.968;1.608;2023-01-31T11:46:55;98703.63;;;8.77;53.31
70254;BME280;57649;42.968;1.608;2023-01-31T11:51:47;98686.97;;;8.96;54.18
70254;BME280;57649;42.968;1.608;2023-01-31T11:54:23;98679.72;;;8.87;53.03
70254;BME280;57649;42.968;1.608;2023-01-31T11:56:49;98679.78;;;8.53;54.84
70254;BME280;57649;42.968;1.608;2023-01-31T11:59:21;98667.63;;;8.60;55.54
70254;BME280;57649;42.968;1.608;2023-01-31T12:01:50;98666.25;;;8.77;55.25
70254;BME280;57649;42.968;1.608;2023-01-31T12:04:25;98657.06;;;8.70;55.40
70254;BME280;57649;42.968;1.608;2023-01-31T12:06:56;98648.88;;;8.94;55.62
70254;BME280;57649;42.968;1.608;2023-01-31T12:09:25;98648.00;;;8.94;56.64
70254;BME280;57649;42.968;1.608;2023-01-31T12:11:59;98646.81;;;9.19;57.39
70254;BME280;57649;42.968;1.608;2023-01-31T12:14:40;98635.97;;;8.99;57.50
70254;BME280;57649;42.968;1.608;2023-01-31T12:17:12;98633.31;;;8.88;59.16
70254;BME280;57649;42.968;1.608;2023-01-31T12:19:51;98636.34;;;8.40;60.08
70254;BME280;57649;42.968;1.608;2023-01-31T12:22:29;98638.88;;;8.64;60.46
70254;BME280;57649;42.968;1.608;2023-01-31T12:25:13;98631.09;;;8.72;60.75
70254;BME280;57649;42.968;1.608;2023-01-31T12:44:01;98597.81;;;8.76;61.11
70254;BME280;57649;42.968;1.608;2023-01-31T12:46:34;98603.34;;;8.63;61.35
70254;BME280;57649;42.968;1.608;2023-01-31T12:52:04;98595.59;;;8.38;62.23
70254;BME280;57649;42.968;1.608;2023-01-31T13:00:31;98576.44;;;8.33;62.69
70254;BME280;57649;42.968;1.608;2023-01-31T13:03:13;98570.03;;;8.35;62.35
70254;BME280;57649;42.968;1.608;2023-01-31T13:05:55;98569.53;;;8.41;62.55
70254;BME280;57649;42.968;1.608;2023-01-31T13:08:30;98560.44;;;8.44;62.63
70254;BME280;57649;42.968;1.608;2023-01-31T13:10:57;98560.78;;;8.51;63.11
70254;BME280;57649;42.968;1.608;2023-01-31T13:13:37;98556.88;;;8.55;62.25
70254;BME280;57649;42.968;1.608;2023-01-31T13:16:19;98560.81;;;8.72;61.91
70254;BME280;57649;42.968;1.608;2023-01-31T13:18:47;98553.13;;;8.57;62.23
70254;BME280;57649;42.968;1.608;2023-01-31T13:21:16;98554.28;;;8.64;62.13
70254;BME280;57649;42.968;1.608;2023-01-31T13:23:46;98549.47;;;8.58;62.36
70254;BME280;57649;42.968;1.608;2023-01-31T13:26:28;98555.09;;;8.44;62.24
70254;BME280;57649;42.968;1.608;2023-01-31T13:31:45;98548.69;;;8.46;62.43
70254;BME280;57649;42.968;1.608;2023-01-31T13:34:16;98548.03;;;8.54;62.84
70254;BME280;57649;42.968;1.608;2023-01-31T13:36:50;98549.88;;;8.75;63.07
70254;BME280;57649;42.968;1.608;2023-01-31T13:39:43;98542.00;;;8.73;62.92
70254;BME280;57649;42.968;1.608;2023-01-31T13:42:13;98542.00;;;8.73;62.98
70254;BME280;57649;42.968;1.608;2023-01-31T13:44:39;98542.06;;;8.62;63.37
70254;BME280;57649;42.968;1.608;2023-01-31T13:47:13;98541.28;;;8.50;63.64
70254;BME280;57649;42.968;1.608;2023-01-31T13:49:49;98546.03;;;8.67;62.87
70254;BME280;57649;42.968;1.608;2023-01-31T13:52:40;98548.16;;;8.85;62.40
70254;BME280;57649;42.968;1.608;2023-01-31T13:55:25;98551.78;;;8.84;62.15
70254;BME280;57649;42.968;1.608;2023-01-31T14:00:58;98544.72;;;8.94;61.92
70254;BME280;57649;42.968;1.608;2023-01-31T14:03:26;98546.56;;;8.82;63.39
70254;BME280;57649;42.968;1.608;2023-01-31T14:05:59;98544.38;;;8.88;63.30
70254;BME280;57649;42.968;1.608;2023-01-31T14:09:15;98533.88;;;8.75;63.29
70254;BME280;57649;42.968;1.608;2023-01-31T14:18:56;98531.31;;;8.73;63.24
70254;BME280;57649;42.968;1.608;2023-01-31T14:23:58;98531.75;;;9.11;63.53
70254;BME280;57649;42.968;1.608;2023-01-31T14:29:06;98532.66;;;9.00;62.97
70254;BME280;57649;42.968;1.608;2023-01-31T14:31:32;98533.69;;;8.88;63.47
70254;BME280;57649;42.968;1.608;2023-01-31T14:33:58;98532.31;;;8.93;62.59
70254;BME280;57649;42.968;1.608;2023-01-31T14:52:39;98526.84;;;9.16;63.19
70254;BME280;57649;42.968;1.608;2023-01-31T14:58:16;98529.84;;;9.01;62.48
70254;BME280;57649;42.968;1.608;2023-01-31T15:00:47;98532.69;;;9.10;62.74
70254;BME280;57649;42.968;1.608;2023-01-31T15:05:54;98534.66;;;9.08;63.20
70254;BME280;57649;42.968;1.608;2023-01-31T15:16:33;98517.91;;;8.84;63.71
70254;BME280;57649;42.968;1.608;2023-01-31T15:19:13;98530.81;;;8.79;63.71